createdAt,value
2018-04-26T00:00:34.439Z,0
2018-04-26T00:01:43.080Z,0
2018-04-26T00:02:51.719Z,0
2018-04-26T00:04:00.351Z,0
2018-04-26T00:05:09.039Z,0
2018-04-26T00:06:17.649Z,0
2018-04-26T00:07:26.281Z,0
2018-04-26T00:08:34.925Z,0
2018-04-26T00:09:43.574Z,0
2018-04-26T00:10:52.206Z,0
2018-04-26T00:12:00.851Z,0
2018-04-26T00:13:09.500Z,0
2018-04-26T00:14:18.134Z,0
2018-04-26T00:15:27.036Z,0
2018-04-26T00:16:35.679Z,0
2018-04-26T00:17:44.333Z,0
2018-04-26T00:18:52.975Z,0
2018-04-26T00:20:01.604Z,0
2018-04-26T00:21:10.249Z,0
2018-04-26T00:22:18.903Z,0
2018-04-26T00:23:27.806Z,0
2018-04-26T00:24:36.443Z,0
2018-04-26T00:25:45.095Z,0
2018-04-26T00:26:53.731Z,0
2018-04-26T00:28:02.366Z,0
2018-04-26T00:29:11.289Z,0
2018-04-26T00:30:19.928Z,0
2018-04-26T00:31:28.848Z,0
2018-04-26T00:32:37.478Z,0
2018-04-26T00:33:46.120Z,0
2018-04-26T00:34:54.769Z,0
2018-04-26T00:36:03.409Z,0
2018-04-26T00:37:12.046Z,0
2018-04-26T00:38:20.975Z,0
2018-04-26T00:39:29.614Z,0
2018-04-26T00:40:38.243Z,0
2018-04-26T00:41:46.898Z,0
2018-04-26T00:42:55.545Z,0
2018-04-26T00:44:04.176Z,0
2018-04-26T00:45:12.823Z,0
2018-04-26T00:46:21.462Z,0
2018-04-26T00:47:30.114Z,0
2018-04-26T00:48:38.751Z,0
2018-04-26T00:49:47.384Z,0
2018-04-26T00:50:56.036Z,0
2018-04-26T00:52:04.680Z,0
2018-04-26T00:53:13.307Z,0
2018-04-26T00:54:21.959Z,0
2018-04-26T00:55:30.607Z,0
2018-04-26T00:56:39.241Z,0
2018-04-26T00:57:47.883Z,0
2018-04-26T00:58:56.540Z,0
2018-04-26T01:00:05.437Z,0
2018-04-26T01:01:14.085Z,0
2018-04-26T01:02:22.973Z,0
2018-04-26T01:03:31.619Z,0
2018-04-26T01:04:40.532Z,0
2018-04-26T01:05:49.163Z,0
2018-04-26T01:06:57.810Z,0
2018-04-26T01:08:06.460Z,0
2018-04-26T01:09:15.094Z,0
2018-04-26T01:10:23.732Z,0
2018-04-26T01:11:32.394Z,0
2018-04-26T01:12:41.030Z,0
2018-04-26T01:13:49.667Z,0
2018-04-26T01:14:58.307Z,0
2018-04-26T01:16:06.954Z,0
2018-04-26T01:17:15.870Z,0
2018-04-26T01:18:24.763Z,0
2018-04-26T01:19:33.400Z,0
2018-04-26T01:20:42.051Z,0
2018-04-26T01:21:50.688Z,0
2018-04-26T01:22:59.323Z,0
2018-04-26T01:24:07.976Z,0
2018-04-26T01:25:16.881Z,0
2018-04-26T01:26:25.516Z,0
2018-04-26T01:27:34.425Z,0
2018-04-26T01:28:43.073Z,0
2018-04-26T01:29:51.715Z,0
2018-04-26T01:31:00.355Z,0
2018-04-26T01:32:08.987Z,0
2018-04-26T01:33:17.650Z,0
2018-04-26T01:34:26.289Z,0
2018-04-26T01:35:35.185Z,0
2018-04-26T01:36:44.099Z,0
2018-04-26T01:37:52.747Z,0
2018-04-26T01:39:01.381Z,0
2018-04-26T01:40:10.024Z,0
2018-04-26T01:41:18.675Z,0
2018-04-26T01:42:27.311Z,0
2018-04-26T01:43:35.958Z,0
2018-04-26T01:44:44.609Z,0
2018-04-26T01:45:53.500Z,0
2018-04-26T01:47:02.143Z,0
2018-04-26T01:48:10.795Z,0
2018-04-26T01:49:19.432Z,0
2018-04-26T01:50:28.342Z,0
2018-04-26T01:51:36.997Z,0
2018-04-26T01:52:45.638Z,0
2018-04-26T01:53:54.269Z,0
2018-04-26T01:55:02.928Z,0
2018-04-26T01:56:11.576Z,0
2018-04-26T01:57:20.213Z,0
2018-04-26T01:58:28.853Z,0
2018-04-26T01:59:37.493Z,0
2018-04-26T02:00:46.414Z,0
2018-04-26T02:01:55.053Z,0
2018-04-26T02:03:03.687Z,0
2018-04-26T02:04:12.340Z,0
2018-04-26T02:05:21.246Z,0
2018-04-26T02:06:30.136Z,0
2018-04-26T02:07:38.782Z,0
2018-04-26T02:08:47.433Z,0
2018-04-26T02:09:56.061Z,0
2018-04-26T02:11:04.708Z,0
2018-04-26T02:12:13.361Z,0
2018-04-26T02:13:21.994Z,0
2018-04-26T02:14:30.636Z,0
2018-04-26T02:15:39.536Z,0
2018-04-26T02:16:48.187Z,0
2018-04-26T02:17:57.100Z,0
2018-04-26T02:19:05.733Z,0
2018-04-26T02:20:14.644Z,0
2018-04-26T02:21:23.299Z,0
2018-04-26T02:22:31.931Z,0
2018-04-26T02:23:40.571Z,0
2018-04-26T02:24:49.488Z,0
2018-04-26T02:25:58.387Z,0
2018-04-26T02:27:07.020Z,0
2018-04-26T02:28:15.665Z,0
2018-04-26T02:29:24.305Z,0
2018-04-26T02:30:32.961Z,0
2018-04-26T02:31:41.595Z,0
2018-04-26T02:32:50.799Z,0
2018-04-26T02:33:59.719Z,0
2018-04-26T02:35:08.619Z,0
2018-04-26T02:36:17.255Z,0
2018-04-26T02:37:25.916Z,0
2018-04-26T02:38:34.558Z,0
2018-04-26T02:39:43.458Z,0
2018-04-26T02:40:52.113Z,0
2018-04-26T02:42:00.773Z,0
2018-04-26T02:43:09.681Z,0
2018-04-26T02:44:18.323Z,0
2018-04-26T02:45:26.956Z,0
2018-04-26T02:46:35.885Z,0
2018-04-26T02:47:44.526Z,0
2018-04-26T02:48:53.167Z,0
2018-04-26T02:50:01.824Z,0
2018-04-26T02:51:10.469Z,0
2018-04-26T02:52:19.102Z,0
2018-04-26T02:53:27.745Z,0
2018-04-26T02:54:36.401Z,0
2018-04-26T02:55:45.043Z,0
2018-04-26T02:56:53.962Z,0
2018-04-26T02:58:02.861Z,0
2018-04-26T02:59:11.796Z,0
2018-04-26T03:00:20.440Z,0
2018-04-26T03:01:29.082Z,0
2018-04-26T03:02:37.737Z,0
2018-04-26T03:03:46.386Z,0
2018-04-26T03:04:55.804Z,0
2018-04-26T03:06:04.451Z,0
2018-04-26T03:07:13.106Z,0
2018-04-26T03:08:22.413Z,0
2018-04-26T03:09:31.035Z,0
2018-04-26T03:10:39.698Z,0
2018-04-26T03:11:48.331Z,0
2018-04-26T03:12:57.523Z,0
2018-04-26T03:14:06.153Z,0
2018-04-26T03:15:14.796Z,0
2018-04-26T03:16:23.451Z,0
2018-04-26T03:17:32.082Z,0
2018-04-26T03:18:40.723Z,0
2018-04-26T03:19:49.374Z,0
2018-04-26T03:20:58.280Z,0
2018-04-26T03:22:06.913Z,0
2018-04-26T03:23:15.569Z,0
2018-04-26T03:24:24.206Z,0
2018-04-26T03:25:32.838Z,0
2018-04-26T03:26:41.483Z,0
2018-04-26T03:27:50.123Z,0
2018-04-26T03:28:59.045Z,0
2018-04-26T03:30:07.949Z,0
2018-04-26T03:31:16.743Z,0
2018-04-26T03:32:25.248Z,0
2018-04-26T03:33:33.888Z,0
2018-04-26T03:34:42.516Z,0
2018-04-26T03:35:51.173Z,0
2018-04-26T03:36:59.818Z,0
2018-04-26T03:38:08.447Z,0
2018-04-26T03:39:17.102Z,0
2018-04-26T03:40:26.017Z,0
2018-04-26T03:41:34.647Z,0
2018-04-26T03:42:43.289Z,0
2018-04-26T03:43:51.941Z,0
2018-04-26T03:45:00.572Z,0
2018-04-26T03:46:09.207Z,0
2018-04-26T03:47:17.859Z,0
2018-04-26T03:48:26.493Z,0
2018-04-26T03:49:35.131Z,0
2018-04-26T03:50:43.783Z,0
2018-04-26T03:51:52.424Z,0
2018-04-26T03:53:01.320Z,0
2018-04-26T03:54:09.975Z,0
2018-04-26T03:55:18.616Z,0
2018-04-26T03:56:27.261Z,0
2018-04-26T03:57:35.939Z,0
2018-04-26T03:58:44.534Z,0
2018-04-26T03:59:53.183Z,0
2018-04-26T04:01:01.831Z,0
2018-04-26T04:02:10.461Z,0
2018-04-26T04:03:19.112Z,0
2018-04-26T04:04:27.753Z,0
2018-04-26T04:05:36.386Z,0
2018-04-26T04:06:45.037Z,0
2018-04-26T04:07:53.954Z,0
2018-04-26T04:09:02.585Z,0
2018-04-26T04:10:11.755Z,0
2018-04-26T04:11:20.391Z,0
2018-04-26T04:12:29.044Z,0
2018-04-26T04:13:37.688Z,0
2018-04-26T04:14:46.314Z,0
2018-04-26T04:15:55.235Z,0
2018-04-26T04:17:03.878Z,0
2018-04-26T04:18:12.510Z,0
2018-04-26T04:19:21.149Z,0
2018-04-26T04:20:29.800Z,0
2018-04-26T04:21:38.430Z,0
2018-04-26T04:22:47.069Z,0
2018-04-26T04:23:55.718Z,0
2018-04-26T04:25:04.352Z,0
2018-04-26T04:26:12.997Z,0
2018-04-26T04:27:21.627Z,0
2018-04-26T04:28:30.271Z,0
2018-04-26T04:29:38.920Z,0
2018-04-26T04:30:47.552Z,0
2018-04-26T04:31:56.188Z,0
2018-04-26T04:33:04.843Z,5
2018-04-26T04:34:13.475Z,5
2018-04-26T04:35:22.207Z,5
2018-04-26T04:36:30.759Z,5
2018-04-26T04:37:39.398Z,5
2018-04-26T04:38:48.027Z,5
2018-04-26T04:39:56.671Z,5
2018-04-26T04:41:05.311Z,5
2018-04-26T04:42:14.247Z,5
2018-04-26T04:43:22.877Z,5
2018-04-26T04:44:31.511Z,5
2018-04-26T04:45:40.163Z,5
2018-04-26T04:46:48.803Z,5
2018-04-26T04:47:57.432Z,5
2018-04-26T04:49:06.083Z,10
2018-04-26T04:50:14.725Z,5
2018-04-26T04:51:23.355Z,5
2018-04-26T04:52:31.999Z,5
2018-04-26T04:53:40.646Z,5
2018-04-26T04:54:49.284Z,5
2018-04-26T04:55:57.924Z,10
2018-04-26T04:57:06.554Z,10
2018-04-26T04:58:15.206Z,10
2018-04-26T04:59:23.847Z,15
2018-04-26T05:00:32.478Z,15
2018-04-26T05:01:41.129Z,10
2018-04-26T05:02:49.773Z,10
2018-04-26T05:03:58.405Z,10
2018-04-26T05:05:07.043Z,15
2018-04-26T05:06:15.965Z,20
2018-04-26T05:07:24.620Z,25
2018-04-26T05:08:33.604Z,30
2018-04-26T05:09:42.240Z,40
2018-04-26T05:10:50.889Z,40
2018-04-26T05:11:59.535Z,35
2018-04-26T05:13:08.427Z,35
2018-04-26T05:14:17.067Z,45
2018-04-26T05:15:25.984Z,40
2018-04-26T05:16:34.614Z,40
2018-04-26T05:17:43.257Z,45
2018-04-26T05:18:52.171Z,55
2018-04-26T05:20:00.810Z,65
2018-04-26T05:21:09.708Z,75
2018-04-26T05:22:18.632Z,85
2018-04-26T05:23:27.550Z,95
2018-04-26T05:24:36.463Z,105
2018-04-26T05:25:45.171Z,90
2018-04-26T05:26:53.743Z,80
2018-04-26T05:28:02.661Z,80
2018-04-26T05:29:11.293Z,85
2018-04-26T05:30:19.930Z,75
2018-04-26T05:31:28.579Z,65
2018-04-26T05:32:37.220Z,70
2018-04-26T05:33:45.868Z,80
2018-04-26T05:34:54.498Z,90
2018-04-26T05:36:03.138Z,100
2018-04-26T05:37:11.769Z,110
2018-04-26T05:38:20.418Z,110
2018-04-26T05:39:29.066Z,105
2018-04-26T05:40:38.004Z,100
2018-04-26T05:41:46.603Z,90
2018-04-26T05:42:55.252Z,85
2018-04-26T05:44:03.887Z,85
2018-04-26T05:45:12.524Z,85
2018-04-26T05:46:21.183Z,85
2018-04-26T05:47:30.259Z,80
2018-04-26T05:48:38.896Z,80
2018-04-26T05:49:48.278Z,90
2018-04-26T05:50:56.918Z,100
2018-04-26T05:52:05.544Z,105
2018-04-26T05:53:14.192Z,100
2018-04-26T05:54:22.826Z,90
2018-04-26T05:55:31.742Z,80
2018-04-26T05:56:40.642Z,85
2018-04-26T05:57:49.286Z,100
2018-04-26T05:58:58.206Z,105
2018-04-26T06:00:07.106Z,115
2018-04-26T06:01:15.742Z,105
2018-04-26T06:02:24.398Z,105
2018-04-26T06:03:33.079Z,115
2018-04-26T06:04:42.223Z,125
2018-04-26T06:05:51.147Z,135
2018-04-26T06:06:59.801Z,135
2018-04-26T06:08:08.446Z,135
2018-04-26T06:09:17.078Z,145
2018-04-26T06:10:25.708Z,150
2018-04-26T06:11:34.360Z,165
2018-04-26T06:12:43.007Z,160
2018-04-26T06:13:51.636Z,155
2018-04-26T06:15:00.285Z,155
2018-04-26T06:16:09.478Z,150
2018-04-26T06:17:18.116Z,145
2018-04-26T06:18:27.043Z,140
2018-04-26T06:19:35.693Z,140
2018-04-26T06:20:44.329Z,140
2018-04-26T06:21:52.978Z,145
2018-04-26T06:23:01.884Z,150
2018-04-26T06:24:10.531Z,165
2018-04-26T06:25:19.191Z,155
2018-04-26T06:26:28.089Z,155
2018-04-26T06:27:37.005Z,160
2018-04-26T06:28:45.662Z,170
2018-04-26T06:29:54.291Z,180
2018-04-26T06:31:02.945Z,180
2018-04-26T06:32:11.586Z,190
2018-04-26T06:33:20.495Z,190
2018-04-26T06:34:29.128Z,155
2018-04-26T06:35:37.783Z,165
2018-04-26T06:36:46.455Z,155
2018-04-26T06:37:55.057Z,155
2018-04-26T06:39:03.708Z,145
2018-04-26T06:40:12.361Z,175
2018-04-26T06:41:20.985Z,180
2018-04-26T06:42:29.636Z,170
2018-04-26T06:43:38.282Z,160
2018-04-26T06:44:46.917Z,150
2018-04-26T06:45:55.558Z,135
2018-04-26T06:47:04.212Z,130
2018-04-26T06:48:12.844Z,135
2018-04-26T06:49:21.501Z,150
2018-04-26T06:50:30.143Z,180
2018-04-26T06:51:38.787Z,235
2018-04-26T06:52:47.436Z,225
2018-04-26T06:53:56.067Z,185
2018-04-26T06:55:04.713Z,150
2018-04-26T06:56:13.368Z,145
2018-04-26T06:57:22.000Z,170
2018-04-26T06:58:30.640Z,175
2018-04-26T06:59:39.295Z,160
2018-04-26T07:00:48.201Z,155
2018-04-26T07:01:56.836Z,150
2018-04-26T07:03:05.749Z,140
2018-04-26T07:04:14.390Z,130
2018-04-26T07:05:23.023Z,160
2018-04-26T07:06:31.669Z,190
2018-04-26T07:07:40.309Z,220
2018-04-26T07:08:48.961Z,175
2018-04-26T07:09:57.602Z,135
2018-04-26T07:11:06.515Z,140
2018-04-26T07:12:15.174Z,140
2018-04-26T07:13:23.810Z,165
2018-04-26T07:14:32.443Z,165
2018-04-26T07:15:41.095Z,170
2018-04-26T07:16:49.741Z,190
2018-04-26T07:17:58.372Z,205
2018-04-26T07:19:07.025Z,230
2018-04-26T07:20:15.672Z,210
2018-04-26T07:21:24.315Z,205
2018-04-26T07:22:32.955Z,210
2018-04-26T07:23:41.591Z,205
2018-04-26T07:24:50.510Z,235
2018-04-26T07:25:59.156Z,245
2018-04-26T07:27:07.795Z,220
2018-04-26T07:28:16.438Z,180
2018-04-26T07:29:25.111Z,180
2018-04-26T07:30:33.724Z,195
2018-04-26T07:31:42.373Z,215
2018-04-26T07:32:51.290Z,225
2018-04-26T07:34:00.013Z,240
2018-04-26T07:35:09.102Z,215
2018-04-26T07:36:18.045Z,270
2018-04-26T07:37:26.693Z,215
2018-04-26T07:38:35.822Z,205
2018-04-26T07:39:44.755Z,225
2018-04-26T07:40:53.396Z,185
2018-04-26T07:42:02.637Z,170
2018-04-26T07:43:11.419Z,210
2018-04-26T07:44:20.316Z,175
2018-04-26T07:45:28.998Z,190
2018-04-26T07:46:37.638Z,235
2018-04-26T07:47:46.284Z,165
2018-04-26T07:48:54.917Z,135
2018-04-26T07:50:03.565Z,190
2018-04-26T07:51:12.203Z,230
2018-04-26T07:52:20.860Z,270
2018-04-26T07:53:29.504Z,230
2018-04-26T07:54:38.408Z,170
2018-04-26T07:55:47.335Z,205
2018-04-26T07:56:55.989Z,225
2018-04-26T07:58:04.618Z,200
2018-04-26T07:59:13.266Z,265
2018-04-26T08:00:21.920Z,195
2018-04-26T08:01:30.593Z,200
2018-04-26T08:02:39.508Z,150
2018-04-26T08:03:48.163Z,120
2018-04-26T08:04:57.062Z,160
2018-04-26T08:06:05.773Z,240
2018-04-26T08:07:14.404Z,260
2018-04-26T08:08:23.047Z,300
2018-04-26T08:09:31.972Z,240
2018-04-26T08:10:40.604Z,225
2018-04-26T08:11:49.327Z,280
2018-04-26T08:12:57.912Z,230
2018-04-26T08:14:06.552Z,285
2018-04-26T08:15:15.458Z,310
2018-04-26T08:16:24.353Z,260
2018-04-26T08:17:33.260Z,275
2018-04-26T08:18:41.894Z,255
2018-04-26T08:19:50.544Z,245
2018-04-26T08:20:59.189Z,265
2018-04-26T08:22:07.843Z,175
2018-04-26T08:23:16.742Z,160
2018-04-26T08:24:25.380Z,225
2018-04-26T08:25:34.056Z,235
2018-04-26T08:26:42.972Z,210
2018-04-26T08:27:51.860Z,220
2018-04-26T08:29:00.782Z,215
2018-04-26T08:30:09.702Z,235
2018-04-26T08:31:18.340Z,280
2018-04-26T08:32:26.989Z,285
2018-04-26T08:33:35.643Z,215
2018-04-26T08:34:44.285Z,150
2018-04-26T08:35:52.925Z,235
2018-04-26T08:37:01.561Z,270
2018-04-26T08:38:10.219Z,305
2018-04-26T08:39:18.866Z,330
2018-04-26T08:40:27.499Z,320
2018-04-26T08:41:36.147Z,245
2018-04-26T08:42:44.798Z,165
2018-04-26T08:43:53.700Z,180
2018-04-26T08:45:02.353Z,160
2018-04-26T08:46:11.003Z,250
2018-04-26T08:47:19.654Z,235
2018-04-26T08:48:28.281Z,225
2018-04-26T08:49:36.926Z,250
2018-04-26T08:50:45.846Z,270
2018-04-26T08:51:54.500Z,290
2018-04-26T08:53:03.134Z,295
2018-04-26T08:54:12.046Z,265
2018-04-26T08:55:20.709Z,230
2018-04-26T08:56:29.613Z,230
2018-04-26T08:57:38.523Z,240
2018-04-26T08:58:47.179Z,255
2018-04-26T08:59:55.820Z,245
2018-04-26T09:01:04.457Z,215
2018-04-26T09:02:13.112Z,260
2018-04-26T09:03:21.750Z,240
2018-04-26T09:04:30.459Z,180
2018-04-26T09:05:39.301Z,245
2018-04-26T09:06:48.006Z,195
2018-04-26T09:07:56.598Z,260
2018-04-26T09:09:05.239Z,275
2018-04-26T09:10:13.874Z,200
2018-04-26T09:11:22.800Z,245
2018-04-26T09:12:31.441Z,255
2018-04-26T09:13:40.076Z,315
2018-04-26T09:14:48.731Z,260
2018-04-26T09:15:57.384Z,325
2018-04-26T09:17:06.015Z,165
2018-04-26T09:18:14.664Z,125
2018-04-26T09:19:23.306Z,125
2018-04-26T09:20:31.965Z,155
2018-04-26T09:21:40.608Z,180
2018-04-26T09:22:49.242Z,160
2018-04-26T09:23:57.901Z,115
2018-04-26T09:25:06.548Z,70
2018-04-26T09:26:15.180Z,80
2018-04-26T09:27:24.098Z,100
2018-04-26T09:28:32.751Z,125
2018-04-26T09:29:41.382Z,125
2018-04-26T09:30:50.033Z,120
2018-04-26T09:31:58.688Z,210
2018-04-26T09:33:07.319Z,160
2018-04-26T09:34:15.965Z,250
2018-04-26T09:35:24.887Z,170
2018-04-26T09:36:33.524Z,185
2018-04-26T09:37:42.170Z,195
2018-04-26T09:38:50.821Z,195
2018-04-26T09:39:59.467Z,195
2018-04-26T09:41:08.360Z,230
2018-04-26T09:42:17.016Z,220
2018-04-26T09:43:25.660Z,205
2018-04-26T09:44:34.295Z,190
2018-04-26T09:45:42.943Z,205
2018-04-26T09:46:51.595Z,200
2018-04-26T09:48:00.235Z,255
2018-04-26T09:49:09.145Z,200
2018-04-26T09:50:18.044Z,275
2018-04-26T09:51:26.698Z,265
2018-04-26T09:52:35.343Z,195
2018-04-26T09:53:43.973Z,210
2018-04-26T09:54:52.627Z,210
2018-04-26T09:56:01.279Z,240
2018-04-26T09:57:09.921Z,280
2018-04-26T09:58:18.565Z,205
2018-04-26T09:59:27.223Z,235
2018-04-26T10:00:36.123Z,295
2018-04-26T10:01:44.815Z,285
2018-04-26T10:02:53.411Z,285
2018-04-26T10:04:02.338Z,355
2018-04-26T10:05:10.986Z,375
2018-04-26T10:06:19.623Z,265
2018-04-26T10:07:28.267Z,305
2018-04-26T10:08:37.194Z,350
2018-04-26T10:09:45.827Z,350
2018-04-26T10:10:54.744Z,435
2018-04-26T10:12:03.400Z,420
2018-04-26T10:13:12.037Z,380
2018-04-26T10:14:20.676Z,335
2018-04-26T10:15:29.596Z,360
2018-04-26T10:16:38.246Z,355
2018-04-26T10:17:46.897Z,340
2018-04-26T10:18:55.536Z,295
2018-04-26T10:20:04.179Z,225
2018-04-26T10:21:12.896Z,210
2018-04-26T10:22:21.476Z,205
2018-04-26T10:23:30.648Z,260
2018-04-26T10:24:39.301Z,275
2018-04-26T10:25:48.216Z,275
2018-04-26T10:26:56.855Z,365
2018-04-26T10:28:05.512Z,335
2018-04-26T10:29:14.160Z,345
2018-04-26T10:30:22.797Z,415
2018-04-26T10:31:31.450Z,430
2018-04-26T10:32:40.350Z,440
2018-04-26T10:33:49.015Z,450
2018-04-26T10:34:57.660Z,435
2018-04-26T10:36:06.292Z,400
2018-04-26T10:37:14.953Z,350
2018-04-26T10:38:23.603Z,285
2018-04-26T10:39:32.521Z,285
2018-04-26T10:40:41.172Z,295
2018-04-26T10:41:49.828Z,320
2018-04-26T10:42:58.461Z,435
2018-04-26T10:44:07.379Z,390
2018-04-26T10:45:16.035Z,405
2018-04-26T10:46:24.677Z,435
2018-04-26T10:47:33.321Z,360
2018-04-26T10:48:41.957Z,365
2018-04-26T10:49:50.614Z,330
2018-04-26T10:50:59.330Z,395
2018-04-26T10:52:08.230Z,405
2018-04-26T10:53:17.012Z,280
2018-04-26T10:54:26.376Z,270
2018-04-26T10:55:35.283Z,290
2018-04-26T10:56:43.925Z,225
2018-04-26T10:57:52.583Z,170
2018-04-26T10:59:01.223Z,135
2018-04-26T11:00:10.026Z,170
2018-04-26T11:01:18.525Z,220
2018-04-26T11:02:27.174Z,325
2018-04-26T11:03:35.830Z,345
2018-04-26T11:04:44.471Z,445
2018-04-26T11:05:53.381Z,435
2018-04-26T11:07:02.036Z,380
2018-04-26T11:08:10.677Z,300
2018-04-26T11:09:19.349Z,195
2018-04-26T11:10:28.355Z,110
2018-04-26T11:11:37.472Z,60
2018-04-26T11:12:45.999Z,40
2018-04-26T11:13:54.659Z,60
2018-04-26T11:15:03.304Z,70
2018-04-26T11:16:11.955Z,65
2018-04-26T11:17:21.331Z,65
2018-04-26T11:18:29.896Z,80
2018-04-26T11:19:38.842Z,100
2018-04-26T11:20:47.491Z,135
2018-04-26T11:21:56.130Z,155
2018-04-26T11:23:05.051Z,160
2018-04-26T11:24:13.696Z,195
2018-04-26T11:25:22.333Z,265
2018-04-26T11:26:30.988Z,355
2018-04-26T11:27:39.634Z,360
2018-04-26T11:28:48.270Z,355
2018-04-26T11:29:56.915Z,330
2018-04-26T11:31:05.917Z,305
2018-04-26T11:32:14.935Z,280
2018-04-26T11:33:23.571Z,260
2018-04-26T11:34:32.231Z,235
2018-04-26T11:35:40.867Z,220
2018-04-26T11:36:49.509Z,215
2018-04-26T11:37:58.163Z,210
2018-04-26T11:39:06.805Z,200
2018-04-26T11:40:15.499Z,200
2018-04-26T11:41:24.091Z,200
2018-04-26T11:42:32.736Z,200
2018-04-26T11:43:41.369Z,205
2018-04-26T11:44:50.024Z,195
2018-04-26T11:45:58.923Z,205
2018-04-26T11:47:07.580Z,210
2018-04-26T11:48:16.219Z,115
2018-04-26T11:49:24.857Z,115
2018-04-26T11:50:33.511Z,110
2018-04-26T11:51:42.769Z,90
2018-04-26T11:52:51.406Z,80
2018-04-26T11:54:00.067Z,85
2018-04-26T11:55:08.730Z,85
2018-04-26T11:56:17.656Z,80
2018-04-26T11:57:26.285Z,85
2018-04-26T11:58:34.941Z,85
2018-04-26T11:59:43.843Z,95
2018-04-26T12:00:52.496Z,85
2018-04-26T12:02:01.129Z,95
2018-04-26T12:03:10.044Z,115
2018-04-26T12:04:18.960Z,125
2018-04-26T12:05:27.595Z,130
2018-04-26T12:06:36.246Z,145
2018-04-26T12:07:45.330Z,170
2018-04-26T12:08:54.241Z,170
2018-04-26T12:10:03.259Z,150
2018-04-26T12:11:12.755Z,150
2018-04-26T12:12:22.252Z,230
2018-04-26T12:13:30.962Z,215
2018-04-26T12:14:39.606Z,210
2018-04-26T12:15:48.253Z,225
2018-04-26T12:16:56.909Z,260
2018-04-26T12:18:05.544Z,270
2018-04-26T12:19:14.189Z,250
2018-04-26T12:20:22.845Z,230
2018-04-26T12:21:31.486Z,210
2018-04-26T12:22:40.125Z,175
2018-04-26T12:23:48.782Z,150
2018-04-26T12:24:57.424Z,140
2018-04-26T12:26:06.067Z,140
2018-04-26T12:27:14.709Z,185
2018-04-26T12:28:23.358Z,275
2018-04-26T12:29:32.358Z,265
2018-04-26T12:30:41.259Z,210
2018-04-26T12:31:49.895Z,250
2018-04-26T12:32:58.557Z,275
2018-04-26T12:34:07.204Z,415
2018-04-26T12:35:16.244Z,435
2018-04-26T12:36:24.876Z,445
2018-04-26T12:37:33.686Z,345
2018-04-26T12:38:42.692Z,355
2018-04-26T12:39:51.554Z,310
2018-04-26T12:41:00.798Z,250
2018-04-26T12:42:09.809Z,160
2018-04-26T12:43:18.642Z,95
2018-04-26T12:44:27.480Z,65
2018-04-26T12:45:36.151Z,75
2018-04-26T12:46:47.961Z,90
2018-04-26T12:47:57.180Z,120
2018-04-26T12:49:06.158Z,145
2018-04-26T12:50:14.850Z,145
2018-04-26T12:51:23.484Z,150
2018-04-26T12:52:32.772Z,135
2018-04-26T12:53:41.524Z,120
2018-04-26T12:54:51.058Z,155
2018-04-26T12:56:00.059Z,255
2018-04-26T12:57:08.716Z,315
2018-04-26T12:58:17.428Z,350
2018-04-26T12:59:26.010Z,270
2018-04-26T13:00:34.904Z,225
2018-04-26T13:01:43.823Z,195
2018-04-26T13:02:52.476Z,155
2018-04-26T13:04:01.112Z,185
2018-04-26T13:05:09.767Z,200
2018-04-26T13:06:18.421Z,180
2018-04-26T13:07:27.330Z,240
2018-04-26T13:08:35.967Z,295
2018-04-26T13:09:44.619Z,360
2018-04-26T13:10:53.265Z,315
2018-04-26T13:12:01.898Z,315
2018-04-26T13:13:10.555Z,335
2018-04-26T13:14:19.194Z,330
2018-04-26T13:15:27.851Z,325
2018-04-26T13:16:36.490Z,310
2018-04-26T13:17:45.128Z,290
2018-04-26T13:18:53.786Z,280
2018-04-26T13:20:02.683Z,260
2018-04-26T13:21:11.343Z,255
2018-04-26T13:22:19.978Z,180
2018-04-26T13:23:28.630Z,245
2018-04-26T13:24:37.522Z,245
2018-04-26T13:25:46.182Z,225
2018-04-26T13:26:55.095Z,270
2018-04-26T13:28:03.730Z,270
2018-04-26T13:29:12.379Z,275
2018-04-26T13:30:21.033Z,235
2018-04-26T13:31:29.665Z,200
2018-04-26T13:32:38.568Z,130
2018-04-26T13:33:47.259Z,205
2018-04-26T13:34:55.901Z,195
2018-04-26T13:36:04.541Z,195
2018-04-26T13:37:13.199Z,155
2018-04-26T13:38:21.842Z,155
2018-04-26T13:39:30.487Z,210
2018-04-26T13:40:39.138Z,165
2018-04-26T13:41:47.786Z,195
2018-04-26T13:42:56.438Z,200
2018-04-26T13:44:05.080Z,230
2018-04-26T13:45:13.720Z,265
2018-04-26T13:46:22.386Z,355
2018-04-26T13:47:31.022Z,325
2018-04-26T13:48:39.658Z,310
2018-04-26T13:49:48.320Z,290
2018-04-26T13:50:56.977Z,265
2018-04-26T13:52:05.641Z,245
2018-04-26T13:53:14.263Z,240
2018-04-26T13:54:22.913Z,235
2018-04-26T13:55:31.550Z,165
2018-04-26T13:56:40.200Z,160
2018-04-26T13:57:48.839Z,150
2018-04-26T13:58:57.509Z,180
2018-04-26T14:00:06.156Z,250
2018-04-26T14:01:14.805Z,245
2018-04-26T14:02:23.714Z,200
2018-04-26T14:03:32.369Z,175
2018-04-26T14:04:41.003Z,150
2018-04-26T14:05:49.652Z,140
2018-04-26T14:06:58.308Z,140
2018-04-26T14:08:06.949Z,145
2018-04-26T14:09:15.596Z,160
2018-04-26T14:10:24.787Z,165
2018-04-26T14:11:33.428Z,155
2018-04-26T14:12:42.079Z,165
2018-04-26T14:13:50.716Z,235
2018-04-26T14:14:59.362Z,230
2018-04-26T14:16:08.293Z,225
2018-04-26T14:17:16.924Z,220
2018-04-26T14:18:25.570Z,210
2018-04-26T14:19:34.501Z,200
2018-04-26T14:20:43.142Z,200
2018-04-26T14:21:51.778Z,195
2018-04-26T14:23:00.454Z,185
2018-04-26T14:24:09.079Z,180
2018-04-26T14:25:18.015Z,170
2018-04-26T14:26:26.660Z,165
2018-04-26T14:27:35.304Z,165
2018-04-26T14:28:43.959Z,160
2018-04-26T14:29:52.598Z,160
2018-04-26T14:31:01.237Z,160
2018-04-26T14:32:10.191Z,165
2018-04-26T14:33:18.839Z,165
2018-04-26T14:34:27.530Z,165
2018-04-26T14:35:36.130Z,165
2018-04-26T14:36:45.043Z,160
2018-04-26T14:37:53.680Z,160
2018-04-26T14:39:02.595Z,160
2018-04-26T14:40:11.247Z,160
2018-04-26T14:41:19.889Z,165
2018-04-26T14:42:28.535Z,165
2018-04-26T14:43:37.171Z,165
2018-04-26T14:44:45.828Z,170
2018-04-26T14:45:55.017Z,180
2018-04-26T14:47:03.652Z,180
2018-04-26T14:48:12.568Z,190
2018-04-26T14:49:21.225Z,180
2018-04-26T14:50:29.861Z,170
2018-04-26T14:51:38.769Z,170
2018-04-26T14:52:47.987Z,180
2018-04-26T14:53:56.621Z,190
2018-04-26T14:55:05.269Z,190
2018-04-26T14:56:14.177Z,175
2018-04-26T14:57:22.840Z,115
2018-04-26T14:58:31.751Z,130
2018-04-26T14:59:40.388Z,185
2018-04-26T15:00:49.295Z,155
2018-04-26T15:01:57.953Z,175
2018-04-26T15:03:06.590Z,180
2018-04-26T15:04:15.236Z,250
2018-04-26T15:05:23.976Z,195
2018-04-26T15:06:32.535Z,185
2018-04-26T15:07:41.172Z,170
2018-04-26T15:08:49.831Z,165
2018-04-26T15:09:58.474Z,155
2018-04-26T15:11:07.124Z,130
2018-04-26T15:12:15.760Z,135
2018-04-26T15:13:24.404Z,125
2018-04-26T15:14:33.329Z,130
2018-04-26T15:15:41.965Z,170
2018-04-26T15:16:50.607Z,175
2018-04-26T15:17:59.266Z,200
2018-04-26T15:19:08.178Z,175
2018-04-26T15:20:16.820Z,175
2018-04-26T15:21:25.472Z,155
2018-04-26T15:22:34.120Z,140
2018-04-26T15:23:42.760Z,135
2018-04-26T15:24:51.677Z,170
2018-04-26T15:26:00.865Z,180
2018-04-26T15:27:09.503Z,175
2018-04-26T15:28:18.153Z,145
2018-04-26T15:29:26.810Z,170
2018-04-26T15:30:35.715Z,135
2018-04-26T15:31:44.621Z,180
2018-04-26T15:32:53.278Z,170
2018-04-26T15:34:01.915Z,180
2018-04-26T15:35:10.828Z,180
2018-04-26T15:36:19.481Z,175
2018-04-26T15:37:28.127Z,160
2018-04-26T15:38:36.762Z,165
2018-04-26T15:39:45.692Z,145
2018-04-26T15:40:54.329Z,140
2018-04-26T15:42:02.988Z,135
2018-04-26T15:43:11.627Z,135
2018-04-26T15:44:20.299Z,145
2018-04-26T15:45:28.927Z,130
2018-04-26T15:46:37.611Z,125
2018-04-26T15:47:46.205Z,130
2018-04-26T15:48:55.125Z,125
2018-04-26T15:50:03.839Z,115
2018-04-26T15:51:12.412Z,115
2018-04-26T15:52:21.334Z,110
2018-04-26T15:53:29.988Z,115
2018-04-26T15:54:38.894Z,120
2018-04-26T15:55:47.536Z,115
2018-04-26T15:56:56.438Z,115
2018-04-26T15:58:05.093Z,115
2018-04-26T15:59:14.282Z,120
2018-04-26T16:00:22.917Z,110
2018-04-26T16:01:31.603Z,115
2018-04-26T16:02:40.220Z,110
2018-04-26T16:03:49.119Z,110
2018-04-26T16:04:57.767Z,105
2018-04-26T16:06:06.421Z,110
2018-04-26T16:07:15.062Z,110
2018-04-26T16:08:23.711Z,105
2018-04-26T16:09:32.355Z,105